Time;durP1;ratioP1;P1;durP2;ratioP2;P2;SDS_P1;SDS_P2;PMS_P1;PMS_P2;Temp;Humidity;BMP_temperature;BMP_pressure;BME280_temperature;BME280_humidity;BME280_pressure;Samples;Min_cycle;Max_cycle;Signal;HPM_P1;HPM_P2
2023/10/27 00:00:22;;;;;;;2.13;0.80;;;16.70;77.90;15.60;94294.00;;;;5014194;28;20264;-80
2023/10/27 00:02:49;;;;;;;0.60;0.60;;;16.70;78.00;15.60;94286.00;;;;5003735;28;20198;-80
2023/10/27 00:05:16;;;;;;;2.37;1.53;;;16.70;78.10;15.60;94279.00;;;;5011158;28;20193;-80
2023/10/27 00:07:45;;;;;;;0.83;0.80;;;16.70;78.20;15.60;94284.00;;;;5022553;28;20229;-80
2023/10/27 00:10:13;;;;;;;0.70;0.70;;;16.70;78.30;15.60;94277.00;;;;5028342;28;20794;-80
2023/10/27 00:12:41;;;;;;;1.10;0.93;;;16.70;78.20;15.60;94273.00;;;;5031455;28;20193;-81
2023/10/27 00:15:09;;;;;;;0.87;0.70;;;16.70;78.20;15.60;94276.00;;;;5027808;28;20565;-81
2023/10/27 00:17:37;;;;;;;1.30;0.90;;;16.70;78.80;15.60;94272.00;;;;5011834;28;20205;-81
2023/10/27 00:20:06;;;;;;;1.87;0.87;;;16.70;78.50;15.50;94266.00;;;;5009448;28;20241;-81
2023/10/27 00:22:35;;;;;;;1.77;0.70;;;16.70;78.60;15.50;94267.00;;;;5028727;28;20212;-80
2023/10/27 00:25:05;;;;;;;1.07;0.73;;;16.70;78.80;15.50;94263.00;;;;4993282;28;20202;-81
2023/10/27 00:27:32;;;;;;;1.57;0.70;;;16.60;78.80;15.50;94261.00;;;;5027635;28;20214;-81
2023/10/27 00:30:00;;;;;;;1.53;0.87;;;16.60;78.80;15.50;94264.00;;;;5005706;28;20214;-81
2023/10/27 00:32:28;;;;;;;1.07;0.70;;;16.60;78.80;15.50;94260.00;;;;5028465;28;20215;-81
2023/10/27 00:34:56;;;;;;;0.80;0.63;;;16.60;78.80;15.50;94260.00;;;;5023702;28;20205;-81
2023/10/27 00:37:23;;;;;;;0.70;0.70;;;16.60;78.90;15.50;94258.00;;;;5026899;28;20202;-81
2023/10/27 00:39:50;;;;;;;1.20;0.77;;;16.60;79.00;15.50;94245.00;;;;5024624;28;20235;-82
2023/10/27 00:42:19;;;;;;;0.73;0.73;;;16.60;79.00;15.50;94247.00;;;;5018956;28;20204;-82
2023/10/27 00:44:46;;;;;;;0.97;0.70;;;16.60;79.00;15.50;94243.00;;;;5019807;28;20280;-82
2023/10/27 00:47:13;;;;;;;0.60;0.50;;;16.60;79.00;15.50;94241.00;;;;5023178;28;20662;-82
2023/10/27 00:49:40;;;;;;;0.70;0.53;;;16.60;79.10;15.40;94249.00;;;;5006419;28;20278;-81
2023/10/27 00:52:08;;;;;;;1.17;0.73;;;16.60;79.20;15.40;94246.00;;;;5006294;28;20202;-82
2023/10/27 00:54:37;;;;;;;1.63;0.80;;;16.60;79.30;15.40;94244.00;;;;4999877;28;20658;-82
2023/10/27 00:57:06;;;;;;;0.73;0.60;;;16.60;79.50;15.40;94241.00;;;;5027343;28;20198;-82
2023/10/27 00:59:36;;;;;;;2.17;0.87;;;16.60;79.50;15.40;94240.00;;;;5030410;28;20255;-81
2023/10/27 01:02:03;;;;;;;0.80;0.80;;;16.60;80.30;15.40;94249.00;;;;5026058;28;20229;-82
2023/10/27 01:04:31;;;;;;;1.77;1.10;;;16.50;79.40;15.40;94247.00;;;;5005127;28;20212;-82
2023/10/27 01:06:58;;;;;;;0.97;0.73;;;16.50;79.40;15.40;94252.00;;;;5010609;28;20194;-82
2023/10/27 01:09:26;;;;;;;1.37;1.10;;;16.50;79.30;15.40;94259.00;;;;5034425;28;20247;-81
2023/10/27 01:11:55;;;;;;;0.57;0.50;;;16.50;79.40;15.40;94254.00;;;;4995203;28;20206;-81
2023/10/27 01:14:23;;;;;;;1.33;0.70;;;16.50;79.20;15.40;94253.00;;;;5023387;28;20205;-82
2023/10/27 01:16:52;;;;;;;1.73;0.60;;;16.50;79.10;15.30;94257.00;;;;5028295;28;20292;-82
2023/10/27 01:19:19;;;;;;;2.00;0.90;;;16.40;79.10;15.30;94249.00;;;;5007670;28;20218;-82
2023/10/27 01:21:46;;;;;;;1.00;0.83;;;16.40;79.10;15.30;94251.00;;;;5006695;28;20708;-82
2023/10/27 01:24:15;;;;;;;0.80;0.80;;;16.40;78.90;15.30;94249.00;;;;5024155;28;20198;-83
2023/10/27 01:26:43;;;;;;;0.90;0.70;;;16.40;78.90;15.30;94252.00;;;;5026846;28;20204;-83
2023/10/27 01:29:10;;;;;;;1.00;0.50;;;16.40;78.90;15.30;94252.00;;;;5009804;28;20257;-82
2023/10/27 01:31:37;;;;;;;2.97;0.80;;;16.40;79.10;15.30;94248.00;;;;5033409;28;20257;-83
2023/10/27 01:34:04;;;;;;;1.20;0.70;;;16.40;79.20;15.30;94248.00;;;;5024927;28;20226;-82
2023/10/27 01:36:31;;;;;;;1.47;0.80;;;16.30;79.10;15.30;94239.00;;;;5034684;28;20305;-83
2023/10/27 01:38:59;;;;;;;0.77;0.70;;;16.30;79.80;15.20;94245.00;;;;4998858;28;20240;-83
2023/10/27 01:41:27;;;;;;;1.50;0.70;;;16.30;79.10;15.20;94245.00;;;;5035475;28;20200;-83
2023/10/27 01:43:55;;;;;;;1.23;0.83;;;16.30;79.10;15.20;94243.00;;;;5019980;28;20206;-83
2023/10/27 01:46:22;;;;;;;0.90;0.70;;;16.30;79.10;15.20;94247.00;;;;5016223;28;20273;-84
2023/10/27 01:48:49;;;;;;;1.17;1.00;;;16.30;79.10;15.20;94239.00;;;;4997086;28;20230;-84
2023/10/27 01:51:16;;;;;;;2.83;0.80;;;16.30;79.10;15.20;94243.00;;;;5018883;28;20194;-85
2023/10/27 01:53:43;;;;;;;1.43;1.10;;;16.30;79.00;15.20;94240.00;;;;5013668;28;20676;-84
2023/10/27 01:56:11;;;;;;;1.53;1.00;;;16.30;79.00;15.10;94252.00;;;;5022013;28;20198;-84
2023/10/27 01:58:44;;;;;;;1.50;0.97;;;16.20;79.70;15.10;94244.00;;;;5021598;28;20744;-84
2023/10/27 02:01:11;;;;;;;1.23;0.90;;;16.20;78.90;15.10;94244.00;;;;5008979;28;20257;-83
2023/10/27 02:03:38;;;;;;;1.50;0.80;;;16.20;78.90;15.10;94248.00;;;;5003034;28;20198;-84
2023/10/27 02:06:06;;;;;;;0.77;0.77;;;16.20;79.00;15.10;94252.00;;;;5002128;28;20198;-85
2023/10/27 02:08:35;;;;;;;1.37;0.80;;;16.20;79.00;15.00;94254.00;;;;5019686;28;20235;-85
2023/10/27 02:11:03;;;;;;;1.47;0.90;;;16.10;78.90;15.00;94266.00;;;;5017109;28;20205;-85
2023/10/27 02:13:30;;;;;;;0.90;0.80;;;16.10;78.80;15.00;94271.00;;;;5019189;28;20205;-85
2023/10/27 02:15:59;;;;;;;1.10;0.90;;;16.10;78.80;15.00;94266.00;;;;5015915;28;20233;-85
2023/10/27 02:18:26;;;;;;;1.10;0.80;;;16.10;79.00;15.00;94261.00;;;;5019436;28;20229;-85
2023/10/27 02:20:53;;;;;;;1.30;0.90;;;16.10;79.00;15.00;94268.00;;;;4999549;28;20241;-85
2023/10/27 02:23:20;;;;;;;1.90;1.10;;;16.10;79.00;15.00;94261.00;;;;5014587;28;20198;-85
2023/10/27 02:25:48;;;;;;;1.43;0.90;;;16.00;79.00;15.00;94272.00;;;;5014151;28;20212;-85
2023/10/27 02:28:15;;;;;;;1.20;1.00;;;16.10;78.90;14.90;94274.00;;;;5004934;28;20875;-84
2023/10/27 02:30:42;;;;;;;1.47;0.87;;;16.00;78.70;14.90;94274.00;;;;5021785;28;20217;-86
2023/10/27 02:33:11;;;;;;;2.87;1.43;;;16.00;78.90;14.90;94270.00;;;;5007764;28;20569;-85
2023/10/27 02:35:38;;;;;;;1.40;1.00;;;16.00;78.70;14.90;94264.00;;;;5013247;28;20197;-86
2023/10/27 02:38:06;;;;;;;1.03;0.77;;;16.00;78.90;14.90;94261.00;;;;4977188;28;20199;-86
2023/10/27 02:40:35;;;;;;;1.20;1.00;;;16.00;79.10;14.90;94255.00;;;;5012254;28;20312;-86
2023/10/27 02:43:03;;;;;;;1.00;0.77;;;16.00;79.30;14.80;94257.00;;;;4995502;28;20197;-86
2023/10/27 02:45:30;;;;;;;2.07;1.00;;;16.00;79.30;14.90;94262.00;;;;5015179;28;20220;-86
2023/10/27 02:47:58;;;;;;;1.33;0.83;;;16.00;79.50;14.90;94252.00;;;;5016917;28;20214;-86
2023/10/27 02:50:26;;;;;;;1.00;0.80;;;15.90;79.50;14.90;94266.00;;;;5008561;28;20232;-86
2023/10/27 02:52:53;;;;;;;1.47;1.00;;;16.00;79.50;14.90;94267.00;;;;5017802;28;20212;-86
2023/10/27 02:55:21;;;;;;;0.93;0.77;;;15.90;79.40;14.90;94272.00;;;;4992189;28;20201;-86
2023/10/27 02:57:48;;;;;;;1.10;0.70;;;15.90;79.30;14.80;94269.00;;;;5017869;28;20571;-86
2023/10/27 03:00:16;;;;;;;1.50;1.00;;;15.90;79.40;14.80;94263.00;;;;5010680;28;20276;-86
2023/10/27 03:02:43;;;;;;;0.73;0.73;;;15.90;79.40;14.80;94265.00;;;;5020930;28;20574;-86
2023/10/27 03:05:10;;;;;;;0.80;0.80;;;15.90;79.40;14.80;94265.00;;;;5016542;28;20277;-86
2023/10/27 03:07:40;;;;;;;0.80;0.80;;;15.90;79.50;14.80;94273.00;;;;5030111;28;20207;-86
2023/10/27 03:10:09;;;;;;;1.53;0.70;;;15.90;79.40;14.80;94282.00;;;;5017842;28;20280;-86
2023/10/27 03:12:36;;;;;;;1.23;0.80;;;15.90;79.20;14.80;94272.00;;;;5008976;28;20570;-86
2023/10/27 03:15:04;;;;;;;1.40;1.00;;;15.90;79.20;14.80;94273.00;;;;5011756;28;20226;-86
2023/10/27 03:17:31;;;;;;;1.00;0.90;;;15.90;79.20;14.80;94273.00;;;;5009596;28;20221;-86
2023/10/27 03:20:00;;;;;;;0.63;0.63;;;15.80;79.00;14.80;94275.00;;;;4999006;28;20229;-87
2023/10/27 03:22:27;;;;;;;1.27;0.60;;;15.80;79.10;14.70;94270.00;;;;5016754;28;20205;-87
2023/10/27 03:24:56;;;;;;;1.43;0.67;;;15.80;79.30;14.70;94272.00;;;;5003982;28;20201;-86
2023/10/27 03:27:24;;;;;;;1.03;0.93;;;15.80;79.20;14.70;94277.00;;;;5015655;28;20293;-87
2023/10/27 03:29:52;;;;;;;0.90;0.70;;;15.80;79.40;14.70;94281.00;;;;4998507;28;20238;-86
2023/10/27 03:32:19;;;;;;;1.70;0.80;;;15.80;79.60;14.70;94285.00;;;;5000187;28;20551;-86
2023/10/27 03:34:46;;;;;;;2.13;0.77;;;15.80;79.70;14.70;94284.00;;;;5015938;28;20202;-86
2023/10/27 03:37:13;;;;;;;0.93;0.70;;;15.80;79.80;14.70;94290.00;;;;5015530;28;20204;-86
2023/10/27 03:39:41;;;;;;;1.20;0.50;;;15.80;79.80;14.70;94289.00;;;;5023819;28;20230;-86
2023/10/27 03:42:11;;;;;;;0.70;0.70;;;15.80;79.90;14.70;94299.00;;;;5015444;28;20210;-86
2023/10/27 03:44:38;;;;;;;1.60;0.90;;;15.80;80.00;14.70;94295.00;;;;4965358;28;20213;-86
2023/10/27 03:47:06;;;;;;;0.90;0.73;;;15.80;79.90;14.70;94289.00;;;;5005592;28;20214;-86
2023/10/27 03:49:33;;;;;;;1.37;1.00;;;15.80;80.00;14.70;94299.00;;;;4997525;28;20240;-86
2023/10/27 03:52:01;;;;;;;0.80;0.80;;;15.80;79.90;14.70;94304.00;;;;4997576;28;20202;-86
2023/10/27 03:54:28;;;;;;;1.63;1.00;;;15.80;79.70;14.60;94298.00;;;;5015522;28;20631;-86
2023/10/27 03:56:56;;;;;;;1.77;0.70;;;15.70;79.60;14.60;94300.00;;;;5004327;28;20628;-86
2023/10/27 03:59:25;;;;;;;1.53;0.80;;;15.70;79.70;14.60;94300.00;;;;5013996;28;20261;-86
2023/10/27 04:01:52;;;;;;;0.63;0.63;;;15.70;79.80;14.60;94299.00;;;;5012468;28;20202;-86
2023/10/27 04:04:19;;;;;;;0.77;0.70;;;15.70;79.80;14.60;94290.00;;;;5014396;28;20277;-86
2023/10/27 04:06:47;;;;;;;0.97;0.60;;;15.70;79.90;14.60;94292.00;;;;5014833;28;20667;-87
2023/10/27 04:09:14;;;;;;;1.00;1.00;;;15.70;80.00;14.50;94289.00;;;;5015337;28;20236;-87
2023/10/27 04:11:43;;;;;;;2.00;0.90;;;15.70;80.00;14.50;94285.00;;;;4998321;28;20237;-87
2023/10/27 04:14:10;;;;;;;1.13;0.80;;;15.70;79.90;14.50;94280.00;;;;5021022;28;20194;-87
2023/10/27 04:16:39;;;;;;;0.87;0.87;;;15.70;79.70;14.50;94283.00;;;;4993826;28;20286;-87
2023/10/27 04:19:06;;;;;;;0.83;0.83;;;15.70;79.70;14.50;94283.00;;;;5024044;28;20222;-87
2023/10/27 04:21:33;;;;;;;0.60;0.60;;;15.60;79.70;14.50;94277.00;;;;5026632;28;20229;-87
2023/10/27 04:24:02;;;;;;;0.77;0.77;;;15.60;79.70;14.50;94280.00;;;;5025623;28;20580;-87
2023/10/27 04:26:30;;;;;;;0.67;0.67;;;15.60;79.80;14.50;94281.00;;;;5000290;28;20193;-86
2023/10/27 04:28:59;;;;;;;1.00;0.80;;;15.60;79.70;14.50;94275.00;;;;5010749;28;20221;-87
2023/10/27 04:31:26;;;;;;;1.37;0.67;;;15.60;79.70;14.50;94268.00;;;;4997453;28;20844;-87
2023/10/27 04:33:56;;;;;;;0.63;0.63;;;15.60;80.40;14.40;94267.00;;;;5015725;28;20229;-87
2023/10/27 04:36:23;;;;;;;2.63;1.00;;;15.60;79.80;14.40;94271.00;;;;4992611;28;20257;-88
2023/10/27 04:38:50;;;;;;;1.07;0.70;;;15.50;79.90;14.40;94263.00;;;;4994097;28;20218;-88
2023/10/27 04:41:19;;;;;;;1.70;1.17;;;15.50;79.90;14.40;94268.00;;;;5014434;28;20273;-88
2023/10/27 04:43:47;;;;;;;1.40;1.17;;;15.50;79.90;14.30;94274.00;;;;5014328;28;20208;-88
2023/10/27 04:46:16;;;;;;;1.40;1.00;;;15.40;79.80;14.30;94278.00;;;;5022349;28;20193;-88
2023/10/27 04:48:43;;;;;;;1.30;1.10;;;15.50;79.70;14.30;94274.00;;;;5013851;28;20232;-88
2023/10/27 04:51:12;;;;;;;1.20;1.10;;;15.50;79.70;14.30;94279.00;;;;5018655;28;20320;-87
2023/10/27 04:53:39;;;;;;;1.20;1.10;;;15.50;79.70;14.20;94277.00;;;;5001994;28;20291;-88
2023/10/27 04:56:07;;;;;;;0.90;0.90;;;15.40;79.70;14.20;94268.00;;;;5013855;28;20575;-88
2023/10/27 04:58:35;;;;;;;1.33;1.10;;;15.40;79.90;14.20;94271.00;;;;5013879;28;20199;-89
2023/10/27 05:01:03;;;;;;;1.30;1.20;;;15.40;80.00;14.20;94268.00;;;;4996740;28;20208;-88
2023/10/27 05:03:30;;;;;;;1.70;1.27;;;15.40;80.10;14.20;94267.00;;;;5013891;28;20224;-88
2023/10/27 05:06:07;;;;;;;1.63;1.30;;;15.40;80.20;14.20;94276.00;;;;4996523;28;20261;-89
2023/10/27 05:08:36;;;;;;;1.87;1.10;;;15.40;80.20;14.20;94281.00;;;;5013561;28;20200;-88
2023/10/27 05:11:03;;;;;;;1.60;1.40;;;15.40;80.20;14.20;94278.00;;;;5013831;28;20313;-89
2023/10/27 05:13:31;;;;;;;2.37;1.60;;;15.40;80.20;14.20;94268.00;;;;4996381;28;20217;-88
2023/10/27 05:15:59;;;;;;;1.80;1.50;;;15.40;80.10;14.20;94261.00;;;;5013663;28;20209;-88
2023/10/27 05:18:27;;;;;;;1.57;1.30;;;15.40;80.10;14.20;94263.00;;;;5011565;28;20198;-88
2023/10/27 05:20:54;;;;;;;2.07;1.80;;;15.40;80.10;14.20;94271.00;;;;4976537;28;20230;-89
2023/10/27 05:23:22;;;;;;;1.90;1.80;;;15.30;80.00;14.20;94273.00;;;;4997673;28;20214;-88
2023/10/27 05:25:52;;;;;;;2.00;1.80;;;15.30;80.10;14.20;94265.00;;;;5013149;28;20264;-87
2023/10/27 05:28:20;;;;;;;1.83;1.73;;;15.30;80.20;14.20;94269.00;;;;5004345;28;20210;-88
2023/10/27 05:30:50;;;;;;;2.53;2.00;;;15.30;80.80;14.20;94261.00;;;;4996004;28;20230;-88
2023/10/27 05:33:17;;;;;;;2.50;2.30;;;15.30;80.00;14.20;94260.00;;;;4996459;28;20658;-88
2023/10/27 05:35:45;;;;;;;2.27;2.03;;;15.30;80.10;14.20;94268.00;;;;5002805;28;20228;-88
2023/10/27 05:38:12;;;;;;;2.23;2.03;;;15.30;80.00;14.20;94278.00;;;;5022861;28;20209;-88
2023/10/27 05:40:39;;;;;;;2.67;2.47;;;15.30;80.00;14.20;94275.00;;;;5013111;28;20229;-88
2023/10/27 05:43:08;;;;;;;2.40;2.20;;;15.30;80.10;14.10;94274.00;;;;5013141;28;20727;-88
2023/10/27 05:45:35;;;;;;;2.23;2.03;;;15.30;80.00;14.10;94277.00;;;;5023740;28;20658;-88
2023/10/27 05:48:03;;;;;;;2.30;2.20;;;15.20;79.90;14.10;94274.00;;;;5023407;28;20218;-88
2023/10/27 05:50:30;;;;;;;2.50;2.30;;;15.20;80.00;14.10;94281.00;;;;5013539;28;20226;-89
2023/10/27 05:52:58;;;;;;;2.70;2.50;;;15.20;80.00;14.10;94283.00;;;;5013419;28;20221;-88
2023/10/27 05:55:26;;;;;;;2.97;2.67;;;15.20;79.90;14.10;94282.00;;;;5018602;28;20208;-88
2023/10/27 05:57:53;;;;;;;2.83;2.43;;;15.20;80.00;14.10;94289.00;;;;4979618;28;20674;-88
2023/10/27 06:00:22;;;;;;;2.77;2.43;;;15.20;80.00;14.10;94302.00;;;;5013071;28;20664;-88
2023/10/27 06:02:52;;;;;;;3.37;3.00;;;15.20;80.20;14.10;94309.00;;;;5002905;28;20202;-88
2023/10/27 06:05:21;;;;;;;2.70;2.50;;;15.20;80.30;14.10;94317.00;;;;5013208;28;20286;-88
2023/10/27 06:07:50;;;;;;;2.80;2.60;;;15.20;80.10;14.10;94324.00;;;;4995357;28;20208;-88
2023/10/27 06:10:26;;;;;;;4.27;3.37;;;15.20;80.20;14.10;94325.00;;;;5024452;28;20233;-88
2023/10/27 06:12:53;;;;;;;3.30;3.00;;;15.20;80.20;14.10;94325.00;;;;5012612;28;20574;-88
2023/10/27 06:15:24;;;;;;;3.20;2.90;;;15.20;80.30;14.10;94318.00;;;;5013425;28;20193;-88
2023/10/27 06:17:54;;;;;;;3.47;3.17;;;15.20;80.30;14.10;94332.00;;;;5020066;28;20216;-88
2023/10/27 06:20:22;;;;;;;3.10;2.90;;;15.20;80.40;14.10;94331.00;;;;5002175;28;20418;-89
2023/10/27 06:22:50;;;;;;;3.60;3.23;;;15.20;80.30;14.10;94348.00;;;;5017060;28;20655;-88
2023/10/27 06:25:18;;;;;;;4.30;2.57;;;15.20;80.30;14.10;94351.00;;;;4999765;28;20206;-88
2023/10/27 06:27:45;;;;;;;2.73;2.53;;;15.20;80.20;14.10;94351.00;;;;5016287;28;20202;-88
2023/10/27 06:30:14;;;;;;;3.70;2.40;;;15.20;80.20;14.10;94353.00;;;;5016623;28;20706;-88
2023/10/27 06:32:43;;;;;;;2.93;2.60;;;15.20;80.30;14.10;94360.00;;;;4979205;28;20198;-88
2023/10/27 06:35:11;;;;;;;2.10;2.00;;;15.20;80.40;14.10;94345.00;;;;5009514;28;20632;-88
2023/10/27 06:37:38;;;;;;;3.23;2.27;;;15.20;80.50;14.20;94352.00;;;;5027981;28;20662;-88
2023/10/27 06:40:10;;;;;;;2.20;2.03;;;15.30;80.60;14.20;94351.00;;;;5019353;28;20213;-92
2023/10/27 06:42:38;;;;;;;2.30;2.10;;;15.30;80.60;14.20;94355.00;;;;5025093;28;20209;-92
2023/10/27 06:45:08;;;;;;;2.60;2.40;;;15.30;80.50;14.20;94354.00;;;;4999346;28;20304;-88
2023/10/27 06:47:36;;;;;;;2.70;2.50;;;15.30;80.30;14.20;94352.00;;;;5016532;28;20628;-88
2023/10/27 06:50:08;;;;;;;2.30;2.10;;;15.30;80.10;14.20;94360.00;;;;5015860;28;20233;-88
2023/10/27 06:52:35;;;;;;;2.90;2.60;;;15.30;80.30;14.20;94357.00;;;;5016311;28;20220;-88
2023/10/27 06:55:04;;;;;;;2.50;2.30;;;15.30;80.50;14.30;94359.00;;;;4999014;28;20232;-88
2023/10/27 06:57:32;;;;;;;2.47;2.27;;;15.30;80.50;14.30;94356.00;;;;5003895;28;20205;-88
2023/10/27 06:59:59;;;;;;;3.03;2.60;;;15.30;80.60;14.30;94355.00;;;;4979856;28;20217;-89
2023/10/27 07:02:27;;;;;;;2.40;2.20;;;15.30;80.70;14.30;94355.00;;;;5016245;28;20202;-88
2023/10/27 07:04:54;;;;;;;2.30;2.10;;;15.40;80.70;14.30;94357.00;;;;4998654;28;20198;-88
2023/10/27 07:07:23;;;;;;;2.60;2.40;;;15.40;80.60;14.30;94354.00;;;;5006698;28;20194;-88
2023/10/27 07:09:51;;;;;;;2.60;2.40;;;15.40;80.60;14.30;94360.00;;;;5003316;28;20698;-88
2023/10/27 07:12:18;;;;;;;2.57;2.37;;;15.40;80.50;14.30;94356.00;;;;5018811;28;20201;-87
2023/10/27 07:14:46;;;;;;;2.60;2.40;;;15.40;80.50;14.30;94359.00;;;;4988271;28;20198;-87
2023/10/27 07:17:13;;;;;;;2.40;2.20;;;15.40;81.10;14.30;94358.00;;;;5030545;28;20571;-87
2023/10/27 07:19:40;;;;;;;2.20;2.00;;;15.50;80.40;14.30;94355.00;;;;5012227;28;20584;-87
2023/10/27 07:22:08;;;;;;;2.43;2.23;;;15.50;80.30;14.40;94346.00;;;;5027769;28;20614;-88
2023/10/27 07:24:37;;;;;;;2.20;2.00;;;15.50;80.40;14.40;94345.00;;;;5020865;28;20241;-88
2023/10/27 07:27:05;;;;;;;1.87;1.77;;;15.50;80.50;14.40;94348.00;;;;5016047;28;20198;-87
2023/10/27 07:29:32;;;;;;;2.73;2.53;;;15.50;80.50;14.40;94364.00;;;;5015768;28;20305;-88
2023/10/27 07:32:00;;;;;;;2.30;2.03;;;15.50;80.60;14.40;94365.00;;;;5012685;28;20232;-88
2023/10/27 07:34:27;;;;;;;3.13;1.93;;;15.50;80.50;14.40;94370.00;;;;5015964;28;20580;-88
2023/10/27 07:36:57;;;;;;;1.70;1.60;;;15.50;80.50;14.40;94366.00;;;;4998398;28;20603;-88
2023/10/27 07:39:26;;;;;;;2.67;1.70;;;15.50;80.30;14.40;94364.00;;;;5023765;28;20258;-89
2023/10/27 07:41:56;;;;;;;1.77;1.67;;;15.50;80.30;14.40;94367.00;;;;5015816;28;20296;-88
2023/10/27 07:44:23;;;;;;;1.70;1.60;;;15.50;80.40;14.50;94367.00;;;;4996073;28;20206;-89
2023/10/27 07:46:52;;;;;;;2.10;1.90;;;15.50;80.50;14.50;94367.00;;;;4994384;28;20214;-88
2023/10/27 07:49:20;;;;;;;2.40;2.20;;;15.50;80.60;14.50;94372.00;;;;5019812;28;20583;-87
2023/10/27 07:51:48;;;;;;;2.00;1.87;;;15.60;80.60;14.50;94369.00;;;;5020192;28;20234;-87
2023/10/27 07:54:15;;;;;;;2.00;1.80;;;15.60;80.70;14.50;94369.00;;;;5022182;28;20241;-87
2023/10/27 07:56:43;;;;;;;1.87;1.77;;;15.60;80.80;14.50;94364.00;;;;5001432;28;20261;-88
2023/10/27 07:59:14;;;;;;;1.67;1.57;;;15.60;80.80;14.50;94364.00;;;;5006325;28;20224;-88
2023/10/27 08:01:41;;;;;;;1.70;1.60;;;15.60;80.80;14.60;94365.00;;;;5015346;28;20202;-88
2023/10/27 08:04:08;;;;;;;2.40;1.80;;;15.70;80.80;14.60;94367.00;;;;5014999;28;20230;-87
2023/10/27 08:06:36;;;;;;;1.97;1.77;;;15.60;80.60;14.60;94369.00;;;;5015357;28;20202;-88
2023/10/27 08:09:04;;;;;;;1.40;1.30;;;15.70;80.60;14.60;94365.00;;;;5004162;28;20225;-88
2023/10/27 08:11:32;;;;;;;1.90;1.20;;;15.70;80.60;14.60;94372.00;;;;5000894;28;20711;-88
2023/10/27 08:13:59;;;;;;;1.40;1.30;;;15.70;80.60;14.60;94360.00;;;;5019610;28;20201;-88
2023/10/27 08:16:28;;;;;;;1.43;1.33;;;15.70;80.60;14.60;94364.00;;;;5027658;28;20193;-87
2023/10/27 08:18:55;;;;;;;1.73;1.30;;;15.70;80.60;14.60;94367.00;;;;5000736;28;20218;-88
2023/10/27 08:21:22;;;;;;;2.07;1.57;;;15.70;80.70;14.60;94381.00;;;;5006660;28;20201;-87
2023/10/27 08:23:50;;;;;;;1.73;1.33;;;15.70;80.70;14.70;94384.00;;;;5034440;28;20308;-87
2023/10/27 08:26:18;;;;;;;2.03;1.80;;;15.70;80.50;14.70;94383.00;;;;5022479;28;20201;-85
2023/10/27 08:28:47;;;;;;;1.90;1.63;;;15.70;80.70;14.70;94376.00;;;;4992471;28;20288;-88
2023/10/27 08:31:16;;;;;;;1.60;1.50;;;15.70;80.90;14.70;94385.00;;;;5014753;28;20261;-89
2023/10/27 08:33:45;;;;;;;2.00;1.37;;;15.80;81.10;14.80;94392.00;;;;5028813;28;20204;-88
2023/10/27 08:36:13;;;;;;;1.47;1.27;;;15.80;81.10;14.80;94389.00;;;;5020047;28;20205;-87
2023/10/27 08:38:40;;;;;;;1.73;1.20;;;15.80;81.20;14.90;94386.00;;;;5013973;28;20284;-88
2023/10/27 08:41:09;;;;;;;1.60;1.50;;;15.80;81.20;14.90;94383.00;;;;5024312;28;20292;-90
2023/10/27 08:43:39;;;;;;;1.80;1.70;;;15.90;81.30;15.00;94388.00;;;;5028108;28;20205;-91
2023/10/27 08:46:09;;;;;;;1.70;1.60;;;15.90;81.30;15.00;94387.00;;;;4996654;28;20292;-90
2023/10/27 08:48:37;;;;;;;1.50;1.40;;;16.00;81.20;15.10;94413.00;;;;5022707;28;20260;-88
2023/10/27 08:51:10;;;;;;;1.60;1.40;;;16.00;81.10;15.10;94416.00;;;;5019279;28;20232;-90
2023/10/27 08:53:40;;;;;;;1.47;1.37;;;16.00;81.10;15.10;94418.00;;;;5014144;28;20194;-89
2023/10/27 08:56:12;;;;;;;1.97;1.47;;;16.10;81.00;15.10;94415.00;;;;5019447;28;20217;-90
2023/10/27 08:58:40;;;;;;;1.57;1.47;;;16.10;80.90;15.20;94419.00;;;;4993829;28;20226;-91
2023/10/27 09:01:07;;;;;;;1.63;1.53;;;16.10;80.80;15.20;94435.00;;;;4996722;28;20220;-91
2023/10/27 09:03:34;;;;;;;1.80;1.70;;;16.10;80.70;15.20;94435.00;;;;5014120;28;20671;-91
2023/10/27 09:06:02;;;;;;;1.80;1.70;;;16.20;80.80;15.20;94441.00;;;;5021998;28;20292;-91
2023/10/27 09:08:31;;;;;;;1.90;1.37;;;16.20;80.70;15.30;94446.00;;;;5021899;28;20212;-91
2023/10/27 09:10:59;;;;;;;1.57;1.43;;;16.20;80.60;15.30;94454.00;;;;4997891;28;20277;-94
2023/10/27 09:13:26;;;;;;;2.53;1.60;;;16.20;80.60;15.30;94450.00;;;;5021639;28;20288;-90
2023/10/27 09:15:53;;;;;;;1.33;1.10;;;16.30;80.70;15.40;94459.00;;;;5034375;28;20709;-91
2023/10/27 09:18:36;;;;;;;1.47;1.27;;;16.30;80.80;15.40;94456.00;;;;4997900;28;20293;-89
2023/10/27 09:21:05;;;;;;;0.60;0.60;;;16.30;80.90;15.50;94455.00;;;;4985746;28;20202;-89
2023/10/27 09:23:46;;;;;;;1.40;0.70;;;16.30;81.00;15.50;94465.00;;;;5001625;28;20646;-90
2023/10/27 09:26:13;;;;;;;0.60;0.60;;;16.40;81.70;15.50;94461.00;;;;5004845;28;20194;-90
2023/10/27 09:28:40;;;;;;;0.50;0.50;;;16.40;81.10;15.60;94474.00;;;;5020062;28;20239;-93
2023/10/27 09:31:08;;;;;;;0.43;0.43;;;16.50;81.30;15.60;94470.00;;;;5015878;28;20272;-91
2023/10/27 09:33:36;;;;;;;0.83;0.63;;;16.50;81.10;15.70;94475.00;;;;5030352;28;20202;-92
2023/10/27 09:36:08;;;;;;;0.53;0.53;;;16.50;80.80;15.70;94487.00;;;;5018305;28;20233;-93
2023/10/27 09:38:37;;;;;;;0.30;0.30;;;16.60;80.70;15.80;94491.00;;;;4999432;28;20230;-91
2023/10/27 09:41:10;;;;;;;0.60;0.30;;;16.60;80.70;15.80;94489.00;;;;4996093;28;20202;-90
2023/10/27 09:43:43;;;;;;;0.70;0.50;;;16.60;80.70;15.80;94496.00;;;;5019706;28;20292;-89
2023/10/27 09:46:14;;;;;;;0.43;0.30;;;16.70;80.70;15.80;94500.00;;;;4993238;28;20742;-89
2023/10/27 09:48:49;;;;;;;0.30;0.30;;;16.70;80.50;15.90;94503.00;;;;5023230;28;20664;-89
2023/10/27 09:51:23;;;;;;;0.33;0.33;;;16.70;80.40;15.90;94500.00;;;;5023391;28;20232;-89
2023/10/27 09:53:53;;;;;;;1.03;0.50;;;16.70;80.40;15.90;94505.00;;;;5036476;28;20212;-90
2023/10/27 09:56:21;;;;;;;0.40;0.40;;;16.80;80.30;15.90;94499.00;;;;5040200;28;20225;-90
2023/10/27 09:58:48;;;;;;;0.30;0.30;;;16.80;80.10;15.90;94493.00;;;;5007695;28;20204;-90
2023/10/27 10:01:19;;;;;;;0.50;0.50;;;16.80;79.80;15.90;94498.00;;;;5002100;28;20326;-89
2023/10/27 10:03:46;;;;;;;0.70;0.70;;;16.80;79.50;15.90;94506.00;;;;5013390;28;20208;-88
2023/10/27 10:06:17;;;;;;;0.40;0.40;;;16.80;79.50;16.00;94499.00;;;;5010578;28;20199;-90
2023/10/27 10:09:10;;;;;;;0.50;0.50;;;16.80;79.20;15.90;94509.00;;;;4996274;28;20256;-89
2023/10/27 10:11:54;;;;;;;0.30;0.30;;;16.80;78.50;15.90;94512.00;;;;5013276;28;20210;-90
2023/10/27 10:14:49;;;;;;;0.20;0.20;;;16.80;78.70;15.90;94518.00;;;;4976482;28;20223;-89
2023/10/27 10:17:37;;;;;;;0.30;0.30;;;16.80;78.40;15.80;94510.00;;;;4992776;28;20734;-87
2023/10/27 10:20:07;;;;;;;0.30;0.30;;;16.80;77.90;15.80;94502.00;;;;5009869;28;20218;-86
2023/10/27 10:22:53;;;;;;;0.40;0.27;;;16.80;78.50;15.80;94510.00;;;;4994941;28;20201;-86
2023/10/27 10:25:50;;;;;;;0.17;0.17;;;16.80;78.80;15.80;94498.00;;;;4998327;28;20292;-87
2023/10/27 10:28:29;;;;;;;0.20;0.20;;;16.80;78.50;15.90;94503.00;;;;4999140;28;20256;-87
2023/10/27 10:31:36;;;;;;;0.53;0.37;;;16.80;79.10;15.90;94505.00;;;;4996883;28;20276;-88
2023/10/27 10:34:13;;;;;;;0.30;0.20;;;16.80;79.60;15.90;94521.00;;;;5012097;28;20565;-87
2023/10/27 10:36:41;;;;;;;0.20;0.20;;;16.80;79.60;15.90;94525.00;;;;4997158;28;20329;-87
2023/10/27 10:39:11;;;;;;;0.40;0.40;;;16.90;79.50;15.90;94526.00;;;;4994259;28;20585;-88
2023/10/27 10:42:05;;;;;;;0.30;0.30;;;16.90;79.10;15.90;94523.00;;;;5016898;28;20571;-88
2023/10/27 10:44:34;;;;;;;0.47;0.30;;;16.80;79.20;15.90;94517.00;;;;5009554;28;20194;-88
2023/10/27 10:47:03;;;;;;;0.33;0.30;;;16.80;79.20;15.80;94515.00;;;;5018946;28;20569;-87
2023/10/27 10:49:33;;;;;;;1.20;0.60;;;16.80;79.20;15.90;94511.00;;;;5021431;28;20592;-87
2023/10/27 10:52:02;;;;;;;0.50;0.50;;;16.80;79.70;15.90;94510.00;;;;5015220;28;20281;-88
2023/10/27 10:54:32;;;;;;;0.20;0.20;;;16.90;80.00;16.00;94514.00;;;;5021658;28;20198;-87
2023/10/27 10:57:22;;;;;;;0.17;0.17;;;16.90;80.10;16.00;94512.00;;;;4994221;28;20202;-88
2023/10/27 10:59:56;;;;;;;0.20;0.20;;;16.90;80.30;16.10;94507.00;;;;5015096;28;20250;-88
2023/10/27 11:02:23;;;;;;;0.40;0.20;;;16.90;80.50;16.10;94513.00;;;;5013268;28;20275;-87